sensor_id;sensor_type;location;lat;lon;timestamp;P1;durP1;ratioP1;P2;durP2;ratioP2
68247;SDS011;55064;49.636;12.164;2022-07-09T00:02:22;8.63;;;3.00;;
68247;SDS011;55064;49.636;12.164;2022-07-09T00:04:48;6.67;;;3.20;;
68247;SDS011;55064;49.636;12.164;2022-07-09T00:07:13;6.50;;;2.60;;
68247;SDS011;55064;49.636;12.164;2022-07-09T00:09:41;6.87;;;2.40;;
68247;SDS011;55064;49.636;12.164;2022-07-09T00:12:07;7.47;;;2.50;;
68247;SDS011;55064;49.636;12.164;2022-07-09T00:14:35;6.68;;;2.53;;
68247;SDS011;55064;49.636;12.164;2022-07-09T00:17:00;5.43;;;2.20;;
68247;SDS011;55064;49.636;12.164;2022-07-09T00:19:28;7.25;;;2.38;;
68247;SDS011;55064;49.636;12.164;2022-07-09T00:21:53;6.87;;;2.43;;
68247;SDS011;55064;49.636;12.164;2022-07-09T00:24:19;6.77;;;2.60;;
68247;SDS011;55064;49.636;12.164;2022-07-09T00:26:46;5.53;;;2.10;;
68247;SDS011;55064;49.636;12.164;2022-07-09T00:29:16;6.70;;;2.40;;
68247;SDS011;55064;49.636;12.164;2022-07-09T00:31:41;6.85;;;2.40;;
68247;SDS011;55064;49.636;12.164;2022-07-09T00:34:09;6.60;;;2.67;;
68247;SDS011;55064;49.636;12.164;2022-07-09T00:36:40;6.10;;;2.60;;
68247;SDS011;55064;49.636;12.164;2022-07-09T00:39:06;5.18;;;2.35;;
68247;SDS011;55064;49.636;12.164;2022-07-09T00:41:31;6.93;;;2.57;;
68247;SDS011;55064;49.636;12.164;2022-07-09T00:43:59;6.10;;;2.20;;
68247;SDS011;55064;49.636;12.164;2022-07-09T00:46:27;6.47;;;2.30;;
68247;SDS011;55064;49.636;12.164;2022-07-09T00:48:52;5.53;;;1.80;;
68247;SDS011;55064;49.636;12.164;2022-07-09T00:51:21;5.28;;;2.10;;
68247;SDS011;55064;49.636;12.164;2022-07-09T00:53:48;6.10;;;2.10;;
68247;SDS011;55064;49.636;12.164;2022-07-09T00:56:15;5.40;;;2.10;;
68247;SDS011;55064;49.636;12.164;2022-07-09T00:58:43;7.03;;;2.70;;
68247;SDS011;55064;49.636;12.164;2022-07-09T01:01:12;5.88;;;2.30;;
68247;SDS011;55064;49.636;12.164;2022-07-09T01:03:40;6.75;;;2.33;;
68247;SDS011;55064;49.636;12.164;2022-07-09T01:06:06;6.07;;;2.40;;
68247;SDS011;55064;49.636;12.164;2022-07-09T01:08:34;7.93;;;3.22;;
68247;SDS011;55064;49.636;12.164;2022-07-09T01:11:00;7.13;;;2.42;;
68247;SDS011;55064;49.636;12.164;2022-07-09T01:13:28;6.30;;;2.30;;
68247;SDS011;55064;49.636;12.164;2022-07-09T01:15:56;6.43;;;2.63;;
68247;SDS011;55064;49.636;12.164;2022-07-09T01:18:21;6.13;;;2.97;;
68247;SDS011;55064;49.636;12.164;2022-07-09T01:20:50;6.43;;;2.67;;
68247;SDS011;55064;49.636;12.164;2022-07-09T01:23:18;6.50;;;2.20;;
68247;SDS011;55064;49.636;12.164;2022-07-09T01:25:43;6.72;;;2.45;;
68247;SDS011;55064;49.636;12.164;2022-07-09T01:28:09;6.00;;;2.47;;
68247;SDS011;55064;49.636;12.164;2022-07-09T01:30:35;7.13;;;2.50;;
68247;SDS011;55064;49.636;12.164;2022-07-09T01:33:04;7.57;;;2.72;;
68247;SDS011;55064;49.636;12.164;2022-07-09T01:35:30;7.97;;;2.40;;
68247;SDS011;55064;49.636;12.164;2022-07-09T01:37:58;6.90;;;2.53;;
68247;SDS011;55064;49.636;12.164;2022-07-09T01:40:24;6.53;;;1.98;;
68247;SDS011;55064;49.636;12.164;2022-07-09T01:42:49;7.18;;;2.53;;
68247;SDS011;55064;49.636;12.164;2022-07-09T01:45:17;6.65;;;2.50;;
68247;SDS011;55064;49.636;12.164;2022-07-09T01:47:42;6.07;;;2.40;;
68247;SDS011;55064;49.636;12.164;2022-07-09T01:50:10;6.47;;;2.20;;
68247;SDS011;55064;49.636;12.164;2022-07-09T01:52:38;6.00;;;2.20;;
68247;SDS011;55064;49.636;12.164;2022-07-09T01:55:04;6.60;;;2.40;;
68247;SDS011;55064;49.636;12.164;2022-07-09T01:57:35;7.45;;;2.40;;
68247;SDS011;55064;49.636;12.164;2022-07-09T02:00:01;6.77;;;2.50;;
68247;SDS011;55064;49.636;12.164;2022-07-09T02:02:28;6.22;;;2.45;;
68247;SDS011;55064;49.636;12.164;2022-07-09T02:04:56;7.53;;;2.73;;
68247;SDS011;55064;49.636;12.164;2022-07-09T02:07:26;6.43;;;2.40;;
68247;SDS011;55064;49.636;12.164;2022-07-09T02:09:54;7.45;;;2.50;;
68247;SDS011;55064;49.636;12.164;2022-07-09T02:12:20;7.13;;;2.55;;
68247;SDS011;55064;49.636;12.164;2022-07-09T02:14:45;8.43;;;2.90;;
68247;SDS011;55064;49.636;12.164;2022-07-09T02:17:11;6.43;;;2.45;;
68247;SDS011;55064;49.636;12.164;2022-07-09T02:19:38;7.00;;;2.57;;
68247;SDS011;55064;49.636;12.164;2022-07-09T02:22:06;6.65;;;2.65;;
68247;SDS011;55064;49.636;12.164;2022-07-09T02:24:34;6.45;;;2.78;;
68247;SDS011;55064;49.636;12.164;2022-07-09T02:27:00;7.00;;;2.93;;
68247;SDS011;55064;49.636;12.164;2022-07-09T02:29:25;7.70;;;2.50;;
68247;SDS011;55064;49.636;12.164;2022-07-09T02:31:50;7.23;;;2.73;;
68247;SDS011;55064;49.636;12.164;2022-07-09T02:34:16;5.97;;;2.70;;
68247;SDS011;55064;49.636;12.164;2022-07-09T02:36:41;7.13;;;2.70;;
68247;SDS011;55064;49.636;12.164;2022-07-09T02:39:09;9.77;;;2.75;;
68247;SDS011;55064;49.636;12.164;2022-07-09T02:41:34;9.37;;;2.67;;
68247;SDS011;55064;49.636;12.164;2022-07-09T02:44:02;6.10;;;2.33;;
68247;SDS011;55064;49.636;12.164;2022-07-09T02:46:35;8.02;;;2.92;;
68247;SDS011;55064;49.636;12.164;2022-07-09T02:49:03;5.95;;;2.80;;
68247;SDS011;55064;49.636;12.164;2022-07-09T02:51:29;6.95;;;2.83;;
68247;SDS011;55064;49.636;12.164;2022-07-09T02:53:54;6.20;;;2.37;;
68247;SDS011;55064;49.636;12.164;2022-07-09T02:56:19;5.43;;;2.50;;
68247;SDS011;55064;49.636;12.164;2022-07-09T02:58:45;5.77;;;2.57;;
68247;SDS011;55064;49.636;12.164;2022-07-09T03:01:10;6.53;;;2.50;;
68247;SDS011;55064;49.636;12.164;2022-07-09T03:03:36;7.53;;;2.63;;
68247;SDS011;55064;49.636;12.164;2022-07-09T03:06:02;7.37;;;2.87;;
68247;SDS011;55064;49.636;12.164;2022-07-09T03:08:28;7.00;;;2.40;;
68247;SDS011;55064;49.636;12.164;2022-07-09T03:10:53;10.60;;;3.37;;
68247;SDS011;55064;49.636;12.164;2022-07-09T03:13:19;7.68;;;2.83;;
68247;SDS011;55064;49.636;12.164;2022-07-09T03:15:45;5.97;;;2.40;;
68247;SDS011;55064;49.636;12.164;2022-07-09T03:18:10;6.38;;;2.38;;
68247;SDS011;55064;49.636;12.164;2022-07-09T03:20:39;7.60;;;3.00;;
68247;SDS011;55064;49.636;12.164;2022-07-09T03:23:04;6.63;;;2.90;;
68247;SDS011;55064;49.636;12.164;2022-07-09T03:25:30;7.47;;;2.90;;
68247;SDS011;55064;49.636;12.164;2022-07-09T03:27:56;6.30;;;2.73;;
68247;SDS011;55064;49.636;12.164;2022-07-09T03:30:21;7.57;;;3.00;;
68247;SDS011;55064;49.636;12.164;2022-07-09T03:32:48;6.97;;;2.90;;
68247;SDS011;55064;49.636;12.164;2022-07-09T03:35:13;6.38;;;2.55;;
68247;SDS011;55064;49.636;12.164;2022-07-09T03:37:39;7.07;;;3.10;;
68247;SDS011;55064;49.636;12.164;2022-07-09T03:40:04;7.67;;;2.63;;
68247;SDS011;55064;49.636;12.164;2022-07-09T03:42:33;9.05;;;2.65;;
68247;SDS011;55064;49.636;12.164;2022-07-09T03:44:59;7.70;;;3.10;;
68247;SDS011;55064;49.636;12.164;2022-07-09T03:47:25;9.10;;;2.90;;
68247;SDS011;55064;49.636;12.164;2022-07-09T03:49:50;6.80;;;2.70;;
68247;SDS011;55064;49.636;12.164;2022-07-09T03:52:16;6.90;;;2.83;;
68247;SDS011;55064;49.636;12.164;2022-07-09T03:54:43;6.10;;;2.70;;
68247;SDS011;55064;49.636;12.164;2022-07-09T03:57:11;8.57;;;3.20;;
68247;SDS011;55064;49.636;12.164;2022-07-09T03:59:40;6.35;;;2.75;;
68247;SDS011;55064;49.636;12.164;2022-07-09T04:02:05;8.40;;;2.80;;
68247;SDS011;55064;49.636;12.164;2022-07-09T04:04:33;6.68;;;3.00;;
68247;SDS011;55064;49.636;12.164;2022-07-09T04:07:01;6.50;;;2.87;;
68247;SDS011;55064;49.636;12.164;2022-07-09T04:09:31;6.65;;;2.80;;
68247;SDS011;55064;49.636;12.164;2022-07-09T04:11:59;6.13;;;2.60;;
68247;SDS011;55064;49.636;12.164;2022-07-09T04:14:27;6.22;;;2.40;;
68247;SDS011;55064;49.636;12.164;2022-07-09T04:16:55;6.00;;;2.70;;
68247;SDS011;55064;49.636;12.164;2022-07-09T04:19:25;6.37;;;2.67;;
68247;SDS011;55064;49.636;12.164;2022-07-09T04:21:55;6.78;;;2.90;;
68247;SDS011;55064;49.636;12.164;2022-07-09T04:24:23;6.32;;;2.30;;
68247;SDS011;55064;49.636;12.164;2022-07-09T04:26:48;5.97;;;2.33;;
68247;SDS011;55064;49.636;12.164;2022-07-09T04:29:16;5.82;;;2.55;;
68247;SDS011;55064;49.636;12.164;2022-07-09T04:31:41;5.20;;;2.30;;
68247;SDS011;55064;49.636;12.164;2022-07-09T04:34:07;5.38;;;2.50;;
68247;SDS011;55064;49.636;12.164;2022-07-09T04:36:34;6.83;;;2.53;;
68247;SDS011;55064;49.636;12.164;2022-07-09T04:39:00;6.85;;;3.00;;
68247;SDS011;55064;49.636;12.164;2022-07-09T04:41:27;5.93;;;2.80;;
68247;SDS011;55064;49.636;12.164;2022-07-09T04:43:53;6.03;;;2.20;;
68247;SDS011;55064;49.636;12.164;2022-07-09T04:46:19;6.17;;;2.77;;
68247;SDS011;55064;49.636;12.164;2022-07-09T04:48:46;6.55;;;2.50;;
68247;SDS011;55064;49.636;12.164;2022-07-09T04:51:14;5.77;;;2.30;;
68247;SDS011;55064;49.636;12.164;2022-07-09T04:53:40;7.07;;;2.83;;
68247;SDS011;55064;49.636;12.164;2022-07-09T04:56:05;7.40;;;2.43;;
68247;SDS011;55064;49.636;12.164;2022-07-09T04:58:32;6.22;;;2.70;;
68247;SDS011;55064;49.636;12.164;2022-07-09T05:00:58;5.50;;;2.70;;
68247;SDS011;55064;49.636;12.164;2022-07-09T05:03:23;7.25;;;2.65;;
68247;SDS011;55064;49.636;12.164;2022-07-09T05:05:49;6.30;;;2.57;;
68247;SDS011;55064;49.636;12.164;2022-07-09T05:08:15;8.27;;;2.83;;
68247;SDS011;55064;49.636;12.164;2022-07-09T05:10:41;9.13;;;3.03;;
68247;SDS011;55064;49.636;12.164;2022-07-09T05:13:09;7.10;;;2.77;;
68247;SDS011;55064;49.636;12.164;2022-07-09T05:15:34;6.85;;;3.55;;
68247;SDS011;55064;49.636;12.164;2022-07-09T05:17:59;4.97;;;2.70;;
68247;SDS011;55064;49.636;12.164;2022-07-09T05:20:27;7.20;;;3.13;;
68247;SDS011;55064;49.636;12.164;2022-07-09T05:23:00;6.80;;;2.80;;
68247;SDS011;55064;49.636;12.164;2022-07-09T05:25:27;7.95;;;2.90;;
68247;SDS011;55064;49.636;12.164;2022-07-09T05:27:53;6.03;;;2.53;;
68247;SDS011;55064;49.636;12.164;2022-07-09T05:30:19;7.83;;;2.80;;
68247;SDS011;55064;49.636;12.164;2022-07-09T05:32:45;7.72;;;3.00;;
68247;SDS011;55064;49.636;12.164;2022-07-09T05:35:13;7.27;;;2.80;;
68247;SDS011;55064;49.636;12.164;2022-07-09T05:37:42;8.82;;;3.08;;
68247;SDS011;55064;49.636;12.164;2022-07-09T05:40:09;6.78;;;3.05;;
68247;SDS011;55064;49.636;12.164;2022-07-09T05:42:42;7.00;;;2.90;;
68247;SDS011;55064;49.636;12.164;2022-07-09T05:45:10;7.00;;;2.72;;
68247;SDS011;55064;49.636;12.164;2022-07-09T05:47:36;7.57;;;2.60;;
68247;SDS011;55064;49.636;12.164;2022-07-09T05:50:01;8.07;;;3.00;;
68247;SDS011;55064;49.636;12.164;2022-07-09T05:52:29;6.68;;;2.80;;
68247;SDS011;55064;49.636;12.164;2022-07-09T05:54:57;6.78;;;3.00;;
68247;SDS011;55064;49.636;12.164;2022-07-09T05:57:25;8.73;;;2.90;;
68247;SDS011;55064;49.636;12.164;2022-07-09T05:59:53;8.02;;;2.97;;
68247;SDS011;55064;49.636;12.164;2022-07-09T06:02:18;7.23;;;2.90;;
68247;SDS011;55064;49.636;12.164;2022-07-09T06:04:44;6.93;;;2.60;;
68247;SDS011;55064;49.636;12.164;2022-07-09T06:07:10;7.13;;;2.67;;
68247;SDS011;55064;49.636;12.164;2022-07-09T06:09:35;7.35;;;2.70;;
68247;SDS011;55064;49.636;12.164;2022-07-09T06:12:01;7.07;;;2.70;;
68247;SDS011;55064;49.636;12.164;2022-07-09T06:14:27;6.95;;;2.70;;
68247;SDS011;55064;49.636;12.164;2022-07-09T06:16:52;7.20;;;2.50;;
68247;SDS011;55064;49.636;12.164;2022-07-09T06:19:20;7.70;;;2.90;;
68247;SDS011;55064;49.636;12.164;2022-07-09T06:21:46;7.22;;;2.65;;
68247;SDS011;55064;49.636;12.164;2022-07-09T06:24:14;6.15;;;2.90;;
68247;SDS011;55064;49.636;12.164;2022-07-09T06:26:41;7.30;;;2.73;;
68247;SDS011;55064;49.636;12.164;2022-07-09T06:29:06;7.50;;;2.67;;
68247;SDS011;55064;49.636;12.164;2022-07-09T06:31:34;6.78;;;2.67;;
68247;SDS011;55064;49.636;12.164;2022-07-09T06:34:02;7.83;;;2.63;;
68247;SDS011;55064;49.636;12.164;2022-07-09T06:36:28;6.28;;;2.97;;
68247;SDS011;55064;49.636;12.164;2022-07-09T06:38:53;7.77;;;3.10;;
68247;SDS011;55064;49.636;12.164;2022-07-09T06:41:37;5.90;;;2.92;;
68247;SDS011;55064;49.636;12.164;2022-07-09T06:44:03;7.20;;;3.07;;
68247;SDS011;55064;49.636;12.164;2022-07-09T06:46:28;6.87;;;3.20;;
68247;SDS011;55064;49.636;12.164;2022-07-09T06:48:54;7.55;;;3.10;;
68247;SDS011;55064;49.636;12.164;2022-07-09T06:51:19;8.30;;;3.37;;
68247;SDS011;55064;49.636;12.164;2022-07-09T06:53:44;6.50;;;3.40;;
68247;SDS011;55064;49.636;12.164;2022-07-09T06:56:10;10.07;;;3.80;;
68247;SDS011;55064;49.636;12.164;2022-07-09T06:58:40;8.40;;;3.67;;
68247;SDS011;55064;49.636;12.164;2022-07-09T07:01:05;8.60;;;3.65;;
68247;SDS011;55064;49.636;12.164;2022-07-09T07:03:33;8.88;;;3.55;;
68247;SDS011;55064;49.636;12.164;2022-07-09T07:06:01;7.72;;;3.40;;
68247;SDS011;55064;49.636;12.164;2022-07-09T07:08:26;9.83;;;3.17;;
68247;SDS011;55064;49.636;12.164;2022-07-09T07:10:54;11.15;;;3.90;;
68247;SDS011;55064;49.636;12.164;2022-07-09T07:13:22;7.77;;;3.27;;
68247;SDS011;55064;49.636;12.164;2022-07-09T07:15:47;8.02;;;3.78;;
68247;SDS011;55064;49.636;12.164;2022-07-09T07:18:16;8.90;;;3.40;;
68247;SDS011;55064;49.636;12.164;2022-07-09T07:20:44;7.30;;;3.30;;
68247;SDS011;55064;49.636;12.164;2022-07-09T07:23:14;7.65;;;3.10;;
68247;SDS011;55064;49.636;12.164;2022-07-09T07:25:42;6.78;;;3.25;;
68247;SDS011;55064;49.636;12.164;2022-07-09T07:28:10;8.25;;;3.42;;
68247;SDS011;55064;49.636;12.164;2022-07-09T07:30:38;6.95;;;2.75;;
68247;SDS011;55064;49.636;12.164;2022-07-09T07:33:07;7.13;;;3.13;;
68247;SDS011;55064;49.636;12.164;2022-07-09T07:35:34;9.85;;;3.38;;
68247;SDS011;55064;49.636;12.164;2022-07-09T07:38:00;6.70;;;3.00;;
68247;SDS011;55064;49.636;12.164;2022-07-09T07:40:28;8.65;;;2.97;;
68247;SDS011;55064;49.636;12.164;2022-07-09T07:42:55;9.20;;;3.47;;
68247;SDS011;55064;49.636;12.164;2022-07-09T07:45:21;8.03;;;3.70;;
68247;SDS011;55064;49.636;12.164;2022-07-09T07:47:49;6.35;;;3.08;;
68247;SDS011;55064;49.636;12.164;2022-07-09T07:50:14;8.30;;;3.20;;
68247;SDS011;55064;49.636;12.164;2022-07-09T07:52:42;7.72;;;3.50;;
68247;SDS011;55064;49.636;12.164;2022-07-09T07:55:08;5.90;;;2.90;;
68247;SDS011;55064;49.636;12.164;2022-07-09T07:57:33;5.50;;;2.50;;
68247;SDS011;55064;49.636;12.164;2022-07-09T07:59:59;8.00;;;2.70;;
68247;SDS011;55064;49.636;12.164;2022-07-09T08:02:24;6.43;;;2.57;;
68247;SDS011;55064;49.636;12.164;2022-07-09T08:04:50;6.00;;;2.30;;
68247;SDS011;55064;49.636;12.164;2022-07-09T08:07:17;4.87;;;2.03;;
68247;SDS011;55064;49.636;12.164;2022-07-09T08:09:45;5.30;;;2.50;;
68247;SDS011;55064;49.636;12.164;2022-07-09T08:12:11;4.70;;;2.03;;
68247;SDS011;55064;49.636;12.164;2022-07-09T08:14:38;6.15;;;2.15;;
68247;SDS011;55064;49.636;12.164;2022-07-09T08:17:07;8.47;;;2.27;;
68247;SDS011;55064;49.636;12.164;2022-07-09T08:19:34;6.38;;;2.30;;
68247;SDS011;55064;49.636;12.164;2022-07-09T08:22:02;7.25;;;2.40;;
68247;SDS011;55064;49.636;12.164;2022-07-09T08:24:28;7.57;;;2.53;;
68247;SDS011;55064;49.636;12.164;2022-07-09T08:26:55;7.30;;;2.50;;
68247;SDS011;55064;49.636;12.164;2022-07-09T08:29:21;5.55;;;2.42;;
68247;SDS011;55064;49.636;12.164;2022-07-09T08:31:47;5.60;;;2.30;;
68247;SDS011;55064;49.636;12.164;2022-07-09T08:34:15;7.93;;;2.33;;
68247;SDS011;55064;49.636;12.164;2022-07-09T08:36:40;5.20;;;2.33;;
68247;SDS011;55064;49.636;12.164;2022-07-09T08:39:06;5.20;;;2.33;;
68247;SDS011;55064;49.636;12.164;2022-07-09T08:41:33;7.25;;;2.60;;
68247;SDS011;55064;49.636;12.164;2022-07-09T08:44:04;5.80;;;2.37;;
68247;SDS011;55064;49.636;12.164;2022-07-09T08:46:34;6.13;;;2.70;;
68247;SDS011;55064;49.636;12.164;2022-07-09T08:49:00;8.33;;;3.60;;
68247;SDS011;55064;49.636;12.164;2022-07-09T08:51:30;6.13;;;2.33;;
68247;SDS011;55064;49.636;12.164;2022-07-09T08:54:01;7.10;;;2.20;;
68247;SDS011;55064;49.636;12.164;2022-07-09T08:56:27;6.55;;;2.60;;
68247;SDS011;55064;49.636;12.164;2022-07-09T08:58:55;5.35;;;2.25;;
68247;SDS011;55064;49.636;12.164;2022-07-09T09:01:20;4.70;;;1.70;;
68247;SDS011;55064;49.636;12.164;2022-07-09T09:03:48;4.70;;;1.70;;
68247;SDS011;55064;49.636;12.164;2022-07-09T09:06:14;5.70;;;1.70;;
68247;SDS011;55064;49.636;12.164;2022-07-09T09:08:40;5.47;;;1.52;;
68247;SDS011;55064;49.636;12.164;2022-07-09T09:11:15;4.00;;;1.40;;
68247;SDS011;55064;49.636;12.164;2022-07-09T09:13:48;4.20;;;1.70;;
68247;SDS011;55064;49.636;12.164;2022-07-09T09:16:17;4.88;;;1.60;;
68247;SDS011;55064;49.636;12.164;2022-07-09T09:18:44;4.22;;;1.80;;
68247;SDS011;55064;49.636;12.164;2022-07-09T09:21:15;4.97;;;1.55;;
68247;SDS011;55064;49.636;12.164;2022-07-09T09:23:44;5.35;;;1.80;;
68247;SDS011;55064;49.636;12.164;2022-07-09T09:26:15;5.70;;;1.83;;
68247;SDS011;55064;49.636;12.164;2022-07-09T09:28:51;3.97;;;1.40;;
68247;SDS011;55064;49.636;12.164;2022-07-09T09:31:20;5.00;;;1.90;;
68247;SDS011;55064;49.636;12.164;2022-07-09T09:33:51;6.15;;;1.98;;
68247;SDS011;55064;49.636;12.164;2022-07-09T09:36:27;6.55;;;1.90;;
68247;SDS011;55064;49.636;12.164;2022-07-09T09:39:06;5.17;;;2.20;;
68247;SDS011;55064;49.636;12.164;2022-07-09T09:41:45;4.22;;;1.77;;
68247;SDS011;55064;49.636;12.164;2022-07-09T09:44:18;4.68;;;1.80;;
68247;SDS011;55064;49.636;12.164;2022-07-09T09:46:48;5.43;;;2.10;;
68247;SDS011;55064;49.636;12.164;2022-07-09T09:49:16;4.70;;;1.52;;
68247;SDS011;55064;49.636;12.164;2022-07-09T09:51:44;5.87;;;2.07;;
68247;SDS011;55064;49.636;12.164;2022-07-09T09:54:16;5.50;;;2.10;;
68247;SDS011;55064;49.636;12.164;2022-07-09T09:56:42;5.68;;;2.08;;
68247;SDS011;55064;49.636;12.164;2022-07-09T09:59:14;4.95;;;1.95;;
68247;SDS011;55064;49.636;12.164;2022-07-09T10:01:40;4.87;;;2.00;;
68247;SDS011;55064;49.636;12.164;2022-07-09T10:04:10;4.22;;;1.83;;
68247;SDS011;55064;49.636;12.164;2022-07-09T10:06:39;4.70;;;1.95;;
68247;SDS011;55064;49.636;12.164;2022-07-09T10:09:06;4.55;;;1.80;;
68247;SDS011;55064;49.636;12.164;2022-07-09T10:14:04;6.10;;;2.00;;
68247;SDS011;55064;49.636;12.164;2022-07-09T10:16:37;4.70;;;1.63;;
68247;SDS011;55064;49.636;12.164;2022-07-09T10:19:04;7.45;;;1.95;;
68247;SDS011;55064;49.636;12.164;2022-07-09T10:24:06;6.03;;;1.92;;
68247;SDS011;55064;49.636;12.164;2022-07-09T10:26:37;4.93;;;1.70;;
68247;SDS011;55064;49.636;12.164;2022-07-09T10:29:27;4.63;;;1.60;;
68247;SDS011;55064;49.636;12.164;2022-07-09T10:31:56;4.07;;;1.70;;
68247;SDS011;55064;49.636;12.164;2022-07-09T10:37:02;7.57;;;1.80;;
68247;SDS011;55064;49.636;12.164;2022-07-09T10:39:29;4.37;;;1.60;;
68247;SDS011;55064;49.636;12.164;2022-07-09T10:42:00;5.10;;;1.80;;
68247;SDS011;55064;49.636;12.164;2022-07-09T10:44:26;4.88;;;1.80;;
68247;SDS011;55064;49.636;12.164;2022-07-09T10:46:56;4.72;;;1.80;;
68247;SDS011;55064;49.636;12.164;2022-07-09T10:49:25;3.90;;;1.50;;
68247;SDS011;55064;49.636;12.164;2022-07-09T10:51:58;4.87;;;1.63;;
68247;SDS011;55064;49.636;12.164;2022-07-09T10:54:26;4.70;;;1.60;;
68247;SDS011;55064;49.636;12.164;2022-07-09T10:56:54;4.43;;;1.73;;
68247;SDS011;55064;49.636;12.164;2022-07-09T10:59:22;4.72;;;1.58;;
68247;SDS011;55064;49.636;12.164;2022-07-09T11:01:49;6.07;;;2.00;;
68247;SDS011;55064;49.636;12.164;2022-07-09T11:06:53;4.10;;;1.60;;
68247;SDS011;55064;49.636;12.164;2022-07-09T11:09:19;4.93;;;1.70;;
68247;SDS011;55064;49.636;12.164;2022-07-09T11:11:45;5.47;;;1.50;;
68247;SDS011;55064;49.636;12.164;2022-07-09T11:14:12;5.75;;;1.70;;
68247;SDS011;55064;49.636;12.164;2022-07-09T11:16:41;4.88;;;1.60;;
68247;SDS011;55064;49.636;12.164;2022-07-09T11:19:16;5.63;;;1.70;;
68247;SDS011;55064;49.636;12.164;2022-07-09T11:21:45;4.43;;;1.50;;
68247;SDS011;55064;49.636;12.164;2022-07-09T11:24:17;5.03;;;1.77;;
68247;SDS011;55064;49.636;12.164;2022-07-09T11:26:44;4.55;;;1.60;;
68247;SDS011;55064;49.636;12.164;2022-07-09T11:29:17;5.18;;;1.80;;
68247;SDS011;55064;49.636;12.164;2022-07-09T11:31:47;4.00;;;1.50;;
68247;SDS011;55064;49.636;12.164;2022-07-09T11:34:16;5.70;;;1.70;;
68247;SDS011;55064;49.636;12.164;2022-07-09T11:36:43;5.18;;;1.80;;
68247;SDS011;55064;49.636;12.164;2022-07-09T11:42:03;4.70;;;1.83;;
68247;SDS011;55064;49.636;12.164;2022-07-09T11:44:30;5.80;;;1.80;;
68247;SDS011;55064;49.636;12.164;2022-07-09T11:47:03;4.15;;;1.63;;
68247;SDS011;55064;49.636;12.164;2022-07-09T11:51:58;3.90;;;1.80;;
68247;SDS011;55064;49.636;12.164;2022-07-09T11:54:29;5.33;;;1.63;;
68247;SDS011;55064;49.636;12.164;2022-07-09T11:56:55;6.05;;;1.50;;
68247;SDS011;55064;49.636;12.164;2022-07-09T11:59:27;5.03;;;1.80;;
68247;SDS011;55064;49.636;12.164;2022-07-09T12:01:59;3.88;;;1.55;;
68247;SDS011;55064;49.636;12.164;2022-07-09T12:04:31;4.63;;;1.67;;
68247;SDS011;55064;49.636;12.164;2022-07-09T12:06:56;5.77;;;1.90;;
68247;SDS011;55064;49.636;12.164;2022-07-09T12:09:31;6.15;;;1.67;;
68247;SDS011;55064;49.636;12.164;2022-07-09T12:11:59;4.95;;;1.67;;
68247;SDS011;55064;49.636;12.164;2022-07-09T12:14:25;4.95;;;1.80;;
68247;SDS011;55064;49.636;12.164;2022-07-09T12:16:52;4.80;;;1.67;;
68247;SDS011;55064;49.636;12.164;2022-07-09T12:19:26;6.37;;;1.70;;
68247;SDS011;55064;49.636;12.164;2022-07-09T12:21:54;4.75;;;1.60;;
68247;SDS011;55064;49.636;12.164;2022-07-09T12:24:22;5.95;;;2.13;;
68247;SDS011;55064;49.636;12.164;2022-07-09T12:26:47;4.40;;;1.90;;
68247;SDS011;55064;49.636;12.164;2022-07-09T12:29:12;4.57;;;1.70;;
68247;SDS011;55064;49.636;12.164;2022-07-09T12:31:40;5.82;;;2.40;;
68247;SDS011;55064;49.636;12.164;2022-07-09T12:34:05;5.33;;;2.00;;
68247;SDS011;55064;49.636;12.164;2022-07-09T12:36:32;7.28;;;1.90;;
68247;SDS011;55064;49.636;12.164;2022-07-09T12:38:57;6.47;;;1.90;;
68247;SDS011;55064;49.636;12.164;2022-07-09T12:41:23;5.73;;;2.00;;
68247;SDS011;55064;49.636;12.164;2022-07-09T12:43:48;4.77;;;1.80;;
68247;SDS011;55064;49.636;12.164;2022-07-09T12:46:13;6.37;;;2.90;;
68247;SDS011;55064;49.636;12.164;2022-07-09T12:48:44;7.43;;;2.80;;
68247;SDS011;55064;49.636;12.164;2022-07-09T12:51:11;6.00;;;1.80;;
68247;SDS011;55064;49.636;12.164;2022-07-09T12:53:39;8.13;;;2.22;;
68247;SDS011;55064;49.636;12.164;2022-07-09T12:56:07;6.13;;;2.20;;
68247;SDS011;55064;49.636;12.164;2022-07-09T12:58:32;5.45;;;2.20;;
68247;SDS011;55064;49.636;12.164;2022-07-09T13:00:58;5.20;;;1.83;;
68247;SDS011;55064;49.636;12.164;2022-07-09T13:03:23;5.50;;;2.10;;
68247;SDS011;55064;49.636;12.164;2022-07-09T13:05:53;4.65;;;2.00;;
68247;SDS011;55064;49.636;12.164;2022-07-09T13:08:18;7.45;;;2.08;;
68247;SDS011;55064;49.636;12.164;2022-07-09T13:10:44;4.40;;;2.00;;
68247;SDS011;55064;49.636;12.164;2022-07-09T13:13:09;5.60;;;1.80;;
68247;SDS011;55064;49.636;12.164;2022-07-09T13:15:37;5.73;;;2.70;;
68247;SDS011;55064;49.636;12.164;2022-07-09T13:18:05;7.95;;;3.80;;
68247;SDS011;55064;49.636;12.164;2022-07-09T13:20:30;5.83;;;3.07;;
68247;SDS011;55064;49.636;12.164;2022-07-09T13:22:56;10.27;;;2.80;;
68247;SDS011;55064;49.636;12.164;2022-07-09T13:25:21;7.50;;;3.60;;
68247;SDS011;55064;49.636;12.164;2022-07-09T13:27:52;7.72;;;3.97;;
68247;SDS011;55064;49.636;12.164;2022-07-09T13:30:17;6.03;;;2.60;;
68247;SDS011;55064;49.636;12.164;2022-07-09T13:32:46;5.53;;;2.20;;
68247;SDS011;55064;49.636;12.164;2022-07-09T13:35:14;8.68;;;4.72;;
68247;SDS011;55064;49.636;12.164;2022-07-09T13:37:40;7.28;;;3.65;;
68247;SDS011;55064;49.636;12.164;2022-07-09T13:40:08;5.85;;;2.80;;
68247;SDS011;55064;49.636;12.164;2022-07-09T13:42:33;6.50;;;3.20;;
68247;SDS011;55064;49.636;12.164;2022-07-09T13:44:59;8.27;;;3.47;;
68247;SDS011;55064;49.636;12.164;2022-07-09T13:47:26;8.15;;;3.22;;
68247;SDS011;55064;49.636;12.164;2022-07-09T13:49:55;7.40;;;3.15;;
68247;SDS011;55064;49.636;12.164;2022-07-09T13:52:23;5.97;;;2.97;;
68247;SDS011;55064;49.636;12.164;2022-07-09T13:54:48;5.67;;;2.70;;
68247;SDS011;55064;49.636;12.164;2022-07-09T13:57:16;8.30;;;3.38;;
68247;SDS011;55064;49.636;12.164;2022-07-09T13:59:41;6.17;;;3.10;;
68247;SDS011;55064;49.636;12.164;2022-07-09T14:02:10;7.05;;;3.15;;
68247;SDS011;55064;49.636;12.164;2022-07-09T14:04:37;6.10;;;2.88;;
68247;SDS011;55064;49.636;12.164;2022-07-09T14:07:03;7.73;;;3.13;;
68247;SDS011;55064;49.636;12.164;2022-07-09T14:09:31;6.03;;;3.00;;
68247;SDS011;55064;49.636;12.164;2022-07-09T14:11:56;20.27;;;4.27;;
68247;SDS011;55064;49.636;12.164;2022-07-09T14:14:26;10.50;;;2.97;;
68247;SDS011;55064;49.636;12.164;2022-07-09T14:16:54;8.85;;;3.25;;
68247;SDS011;55064;49.636;12.164;2022-07-09T14:19:21;7.15;;;3.00;;
68247;SDS011;55064;49.636;12.164;2022-07-09T14:21:47;8.70;;;3.07;;
68247;SDS011;55064;49.636;12.164;2022-07-09T14:24:12;6.70;;;3.30;;
68247;SDS011;55064;49.636;12.164;2022-07-09T14:26:38;7.20;;;3.20;;
68247;SDS011;55064;49.636;12.164;2022-07-09T14:29:10;8.60;;;3.20;;
68247;SDS011;55064;49.636;12.164;2022-07-09T14:31:36;6.78;;;3.30;;
68247;SDS011;55064;49.636;12.164;2022-07-09T14:34:04;6.47;;;3.20;;
68247;SDS011;55064;49.636;12.164;2022-07-09T14:36:31;7.13;;;3.53;;
68247;SDS011;55064;49.636;12.164;2022-07-09T14:38:57;6.95;;;2.90;;
68247;SDS011;55064;49.636;12.164;2022-07-09T14:41:25;6.73;;;3.13;;
68247;SDS011;55064;49.636;12.164;2022-07-09T14:43:50;6.88;;;2.92;;
68247;SDS011;55064;49.636;12.164;2022-07-09T14:46:18;5.40;;;2.80;;
68247;SDS011;55064;49.636;12.164;2022-07-09T14:48:46;6.47;;;3.33;;
68247;SDS011;55064;49.636;12.164;2022-07-09T14:51:11;6.90;;;2.88;;